sensor_id;sensor_type;location;lat;lon;timestamp;pressure;altitude;pressure_sealevel;temperature;humidity
60373;BME280;46216;52.220;5.134;2022-11-04T00:01:32;100210.53;;;11.96;100.00
60373;BME280;46216;52.220;5.134;2022-11-04T00:03:58;100229.34;;;11.94;100.00
60373;BME280;46216;52.220;5.134;2022-11-04T00:06:24;100225.97;;;11.92;100.00
60373;BME280;46216;52.220;5.134;2022-11-04T00:08:51;100229.88;;;11.88;100.00
60373;BME280;46216;52.220;5.134;2022-11-04T00:11:17;100221.53;;;11.81;100.00
60373;BME280;46216;52.220;5.134;2022-11-04T00:14:02;100235.88;;;11.80;100.00
60373;BME280;46216;52.220;5.134;2022-11-04T00:16:27;100230.66;;;11.79;100.00
60373;BME280;46216;52.220;5.134;2022-11-04T00:19:11;100236.69;;;11.81;100.00
60373;BME280;46216;52.220;5.134;2022-11-04T00:21:36;100249.22;;;11.80;100.00
60373;BME280;46216;52.220;5.134;2022-11-04T00:24:20;100246.69;;;11.79;100.00
60373;BME280;46216;52.220;5.134;2022-11-04T00:27:04;100253.13;;;11.76;100.00
60373;BME280;46216;52.220;5.134;2022-11-04T00:29:48;100265.75;;;11.74;100.00
60373;BME280;46216;52.220;5.134;2022-11-04T00:32:13;100264.81;;;11.75;100.00
60373;BME280;46216;52.220;5.134;2022-11-04T00:34:57;100261.97;;;11.77;100.00
60373;BME280;46216;52.220;5.134;2022-11-04T00:37:22;100265.75;;;11.74;100.00
60373;BME280;46216;52.220;5.134;2022-11-04T00:39:48;100275.59;;;11.74;100.00
60373;BME280;46216;52.220;5.134;2022-11-04T00:42:13;100264.34;;;11.70;100.00
60373;BME280;46216;52.220;5.134;2022-11-04T00:44:38;100275.00;;;11.70;100.00
60373;BME280;46216;52.220;5.134;2022-11-04T00:47:04;100278.94;;;11.66;100.00
60373;BME280;46216;52.220;5.134;2022-11-04T00:49:29;100284.28;;;11.66;100.00
60373;BME280;46216;52.220;5.134;2022-11-04T00:51:55;100288.19;;;11.62;100.00
60373;BME280;46216;52.220;5.134;2022-11-04T00:54:20;100295.97;;;11.54;100.00
60373;BME280;46216;52.220;5.134;2022-11-04T00:56:45;100300.16;;;11.47;100.00
60373;BME280;46216;52.220;5.134;2022-11-04T00:59:13;100297.63;;;11.45;100.00
60373;BME280;46216;52.220;5.134;2022-11-04T01:01:38;100298.84;;;11.41;100.00
60373;BME280;46216;52.220;5.134;2022-11-04T01:04:03;100297.31;;;11.39;100.00
60373;BME280;46216;52.220;5.134;2022-11-04T01:06:29;100294.75;;;11.37;100.00
60373;BME280;46216;52.220;5.134;2022-11-04T01:08:59;100300.34;;;11.34;100.00
60373;BME280;46216;52.220;5.134;2022-11-04T01:11:26;100305.81;;;11.32;100.00
60373;BME280;46216;52.220;5.134;2022-11-04T01:13:53;100317.00;;;11.26;100.00
60373;BME280;46216;52.220;5.134;2022-11-04T01:16:19;100329.09;;;11.30;100.00
60373;BME280;46216;52.220;5.134;2022-11-04T01:18:44;100325.47;;;11.31;100.00
60373;BME280;46216;52.220;5.134;2022-11-04T01:21:11;100324.75;;;11.29;100.00
60373;BME280;46216;52.220;5.134;2022-11-04T01:23:38;100326.56;;;11.29;100.00
60373;BME280;46216;52.220;5.134;2022-11-04T01:26:07;100342.69;;;11.27;100.00
60373;BME280;46216;52.220;5.134;2022-11-04T01:28:33;100341.75;;;11.28;100.00
60373;BME280;46216;52.220;5.134;2022-11-04T01:30:58;100348.91;;;11.28;100.00
60373;BME280;46216;52.220;5.134;2022-11-04T01:33:24;100347.31;;;11.25;100.00
60373;BME280;46216;52.220;5.134;2022-11-04T01:35:50;100359.56;;;11.28;100.00
60373;BME280;46216;52.220;5.134;2022-11-04T01:38:16;100355.06;;;11.28;100.00
60373;BME280;46216;52.220;5.134;2022-11-04T01:40:41;100361.66;;;11.24;100.00
60373;BME280;46216;52.220;5.134;2022-11-04T01:43:15;100371.44;;;11.24;100.00
60373;BME280;46216;52.220;5.134;2022-11-04T01:45:45;100362.50;;;11.25;100.00
60373;BME280;46216;52.220;5.134;2022-11-04T01:48:24;100368.06;;;11.22;100.00
60373;BME280;46216;52.220;5.134;2022-11-04T01:50:52;100369.66;;;11.24;100.00
60373;BME280;46216;52.220;5.134;2022-11-04T01:53:22;100370.50;;;11.25;100.00
60373;BME280;46216;52.220;5.134;2022-11-04T01:55:52;100379.19;;;11.27;100.00
60373;BME280;46216;52.220;5.134;2022-11-04T01:58:22;100389.03;;;11.26;100.00
60373;BME280;46216;52.220;5.134;2022-11-04T02:00:48;100388.44;;;11.23;100.00
60373;BME280;46216;52.220;5.134;2022-11-04T02:03:28;100395.09;;;11.17;100.00
60373;BME280;46216;52.220;5.134;2022-11-04T02:05:56;100404.34;;;11.13;100.00
60373;BME280;46216;52.220;5.134;2022-11-04T02:08:22;100389.09;;;11.04;100.00
60373;BME280;46216;52.220;5.134;2022-11-04T02:11:06;100397.13;;;10.93;100.00
60373;BME280;46216;52.220;5.134;2022-11-04T02:13:34;100407.19;;;10.89;100.00
60373;BME280;46216;52.220;5.134;2022-11-04T02:16:31;100405.16;;;10.81;100.00
60373;BME280;46216;52.220;5.134;2022-11-04T02:19:42;100403.81;;;10.76;100.00
60373;BME280;46216;52.220;5.134;2022-11-04T02:25:02;100413.66;;;10.64;100.00
60373;BME280;46216;52.220;5.134;2022-11-04T02:27:38;100413.06;;;10.60;100.00
60373;BME280;46216;52.220;5.134;2022-11-04T02:30:15;100420.53;;;10.55;100.00
60373;BME280;46216;52.220;5.134;2022-11-04T02:38:30;100444.16;;;10.37;100.00
60373;BME280;46216;52.220;5.134;2022-11-04T02:41:10;100447.44;;;10.41;100.00
60373;BME280;46216;52.220;5.134;2022-11-04T02:43:52;100442.47;;;10.36;100.00
60373;BME280;46216;52.220;5.134;2022-11-04T02:46:27;100448.28;;;10.41;100.00
60373;BME280;46216;52.220;5.134;2022-11-04T02:49:07;100449.25;;;10.40;100.00
60373;BME280;46216;52.220;5.134;2022-11-04T02:52:04;100447.56;;;10.39;100.00
60373;BME280;46216;52.220;5.134;2022-11-04T02:55:02;100453.84;;;10.38;100.00
60373;BME280;46216;52.220;5.134;2022-11-04T02:57:31;100441.97;;;10.42;100.00
60373;BME280;46216;52.220;5.134;2022-11-04T03:00:08;100451.06;;;10.40;100.00
60373;BME280;46216;52.220;5.134;2022-11-04T03:02:50;100446.09;;;10.35;100.00
60373;BME280;46216;52.220;5.134;2022-11-04T03:05:25;100445.00;;;10.38;100.00
60373;BME280;46216;52.220;5.134;2022-11-04T03:07:54;100456.28;;;10.41;100.00
60373;BME280;46216;52.220;5.134;2022-11-04T03:10:26;100447.28;;;10.42;100.00
60373;BME280;46216;52.220;5.134;2022-11-04T03:13:01;100453.59;;;10.41;100.00
60373;BME280;46216;52.220;5.134;2022-11-04T03:15:33;100452.53;;;10.44;100.00
60373;BME280;46216;52.220;5.134;2022-11-04T03:18:06;100456.78;;;10.47;100.00
60373;BME280;46216;52.220;5.134;2022-11-04T03:20:38;100458.59;;;10.46;100.00
60373;BME280;46216;52.220;5.134;2022-11-04T03:23:05;100461.34;;;10.45;100.00
60373;BME280;46216;52.220;5.134;2022-11-04T03:25:51;100466.91;;;10.41;100.00
60373;BME280;46216;52.220;5.134;2022-11-04T03:31:29;100467.91;;;10.40;100.00
60373;BME280;46216;52.220;5.134;2022-11-04T03:33:57;100472.25;;;10.41;100.00
60373;BME280;46216;52.220;5.134;2022-11-04T03:36:22;100479.53;;;10.39;100.00
60373;BME280;46216;52.220;5.134;2022-11-04T03:38:49;100484.13;;;10.37;100.00
60373;BME280;46216;52.220;5.134;2022-11-04T03:41:22;100483.38;;;10.35;100.00
60373;BME280;46216;52.220;5.134;2022-11-04T03:43:50;100482.66;;;10.33;100.00
60373;BME280;46216;52.220;5.134;2022-11-04T03:46:15;100483.59;;;10.32;100.00
60373;BME280;46216;52.220;5.134;2022-11-04T03:48:41;100488.00;;;10.33;100.00
60373;BME280;46216;52.220;5.134;2022-11-04T03:51:09;100494.16;;;10.34;100.00
60373;BME280;46216;52.220;5.134;2022-11-04T03:53:34;100487.00;;;10.34;100.00
60373;BME280;46216;52.220;5.134;2022-11-04T03:56:24;100497.91;;;10.31;100.00
60373;BME280;46216;52.220;5.134;2022-11-04T03:59:13;100495.38;;;10.30;100.00
60373;BME280;46216;52.220;5.134;2022-11-04T04:01:55;100500.81;;;10.28;100.00
60373;BME280;46216;52.220;5.134;2022-11-04T04:04:43;100501.53;;;10.30;100.00
60373;BME280;46216;52.220;5.134;2022-11-04T04:07:32;100501.78;;;10.27;100.00
60373;BME280;46216;52.220;5.134;2022-11-04T04:10:13;100502.81;;;10.25;100.00
60373;BME280;46216;52.220;5.134;2022-11-04T04:13:01;100501.88;;;10.26;100.00
60373;BME280;46216;52.220;5.134;2022-11-04T04:15:42;100500.94;;;10.27;100.00
60373;BME280;46216;52.220;5.134;2022-11-04T04:18:12;100509.88;;;10.26;100.00
60373;BME280;46216;52.220;5.134;2022-11-04T04:20:40;100513.41;;;10.26;100.00
60373;BME280;46216;52.220;5.134;2022-11-04T04:23:12;100522.44;;;10.24;100.00
60373;BME280;46216;52.220;5.134;2022-11-04T04:26:02;100525.84;;;10.26;100.00
60373;BME280;46216;52.220;5.134;2022-11-04T04:28:49;100521.59;;;10.23;100.00
60373;BME280;46216;52.220;5.134;2022-11-04T04:31:16;100521.59;;;10.23;100.00
60373;BME280;46216;52.220;5.134;2022-11-04T04:34:02;100536.72;;;10.23;100.00
60373;BME280;46216;52.220;5.134;2022-11-04T04:36:30;100542.91;;;10.23;100.00
60373;BME280;46216;52.220;5.134;2022-11-04T04:38:57;100542.91;;;10.23;100.00
60373;BME280;46216;52.220;5.134;2022-11-04T04:41:46;100545.56;;;10.23;100.00
60373;BME280;46216;52.220;5.134;2022-11-04T04:44:32;100534.16;;;10.21;100.00
60373;BME280;46216;52.220;5.134;2022-11-04T04:47:21;100535.13;;;10.20;100.00
60373;BME280;46216;52.220;5.134;2022-11-04T04:49:55;100538.78;;;10.19;100.00
60373;BME280;46216;52.220;5.134;2022-11-04T04:52:22;100542.91;;;10.23;100.00
60373;BME280;46216;52.220;5.134;2022-11-04T04:54:48;100549.16;;;10.22;100.00
60373;BME280;46216;52.220;5.134;2022-11-04T04:57:14;100552.81;;;10.21;100.00
60373;BME280;46216;52.220;5.134;2022-11-04T04:59:40;100548.47;;;10.20;100.00
60373;BME280;46216;52.220;5.134;2022-11-04T05:02:05;100559.22;;;10.18;100.00
60373;BME280;46216;52.220;5.134;2022-11-04T05:04:30;100560.94;;;10.19;100.00
60373;BME280;46216;52.220;5.134;2022-11-04T05:06:56;100559.09;;;10.20;100.00
60373;BME280;46216;52.220;5.134;2022-11-04T05:09:21;100572.66;;;10.17;100.00
60373;BME280;46216;52.220;5.134;2022-11-04T05:11:47;100570.00;;;10.17;100.00
60373;BME280;46216;52.220;5.134;2022-11-04T05:14:12;100567.19;;;10.18;100.00
60373;BME280;46216;52.220;5.134;2022-11-04T05:16:37;100564.75;;;10.15;100.00
60373;BME280;46216;52.220;5.134;2022-11-04T05:19:03;100563.91;;;10.15;100.00
60373;BME280;46216;52.220;5.134;2022-11-04T05:21:28;100576.06;;;10.19;100.00
60373;BME280;46216;52.220;5.134;2022-11-04T05:23:53;100580.50;;;10.18;100.00
60373;BME280;46216;52.220;5.134;2022-11-04T05:26:19;100571.81;;;10.16;100.00
60373;BME280;46216;52.220;5.134;2022-11-04T05:28:44;100570.84;;;10.17;100.00
60373;BME280;46216;52.220;5.134;2022-11-04T05:31:09;100570.97;;;10.16;100.00
60373;BME280;46216;52.220;5.134;2022-11-04T05:33:35;100578.94;;;10.16;100.00
60373;BME280;46216;52.220;5.134;2022-11-04T05:36:14;100578.34;;;10.12;100.00
60373;BME280;46216;52.220;5.134;2022-11-04T05:38:41;100578.19;;;10.14;100.00
60373;BME280;46216;52.220;5.134;2022-11-04T05:41:09;100588.09;;;10.12;100.00
60373;BME280;46216;52.220;5.134;2022-11-04T05:43:34;100594.53;;;10.09;100.00
60373;BME280;46216;52.220;5.134;2022-11-04T05:46:00;100599.00;;;10.09;100.00
60373;BME280;46216;52.220;5.134;2022-11-04T05:48:26;100609.88;;;10.06;100.00
60373;BME280;46216;52.220;5.134;2022-11-04T05:50:52;100608.41;;;10.02;100.00
60373;BME280;46216;52.220;5.134;2022-11-04T05:53:18;100615.66;;;10.00;100.00
60373;BME280;46216;52.220;5.134;2022-11-04T05:55:43;100622.91;;;9.98;100.00
60373;BME280;46216;52.220;5.134;2022-11-04T05:58:09;100612.25;;;9.98;100.00
60373;BME280;46216;52.220;5.134;2022-11-04T06:00:34;100615.88;;;9.97;100.00
60373;BME280;46216;52.220;5.134;2022-11-04T06:03:00;100612.69;;;9.91;100.00
60373;BME280;46216;52.220;5.134;2022-11-04T06:05:26;100615.47;;;9.90;100.00
60373;BME280;46216;52.220;5.134;2022-11-04T06:07:52;100616.56;;;9.87;100.00
60373;BME280;46216;52.220;5.134;2022-11-04T06:10:17;100617.63;;;9.85;100.00
60373;BME280;46216;52.220;5.134;2022-11-04T06:12:43;100613.41;;;9.82;100.00
60373;BME280;46216;52.220;5.134;2022-11-04T06:15:08;100609.97;;;9.80;100.00
60373;BME280;46216;52.220;5.134;2022-11-04T06:17:34;100614.69;;;9.77;100.00
60373;BME280;46216;52.220;5.134;2022-11-04T06:19:59;100616.59;;;9.75;100.00
60373;BME280;46216;52.220;5.134;2022-11-04T06:22:25;100619.59;;;9.70;100.00
60373;BME280;46216;52.220;5.134;2022-11-04T06:24:50;100628.78;;;9.66;100.00
60373;BME280;46216;52.220;5.134;2022-11-04T06:27:15;100634.31;;;9.63;100.00
60373;BME280;46216;52.220;5.134;2022-11-04T06:29:41;100637.94;;;9.62;100.00
60373;BME280;46216;52.220;5.134;2022-11-04T06:32:11;100639.22;;;9.56;100.00
60373;BME280;46216;52.220;5.134;2022-11-04T06:34:37;100636.06;;;9.51;100.00
60373;BME280;46216;52.220;5.134;2022-11-04T06:37:03;100645.94;;;9.49;100.00
60373;BME280;46216;52.220;5.134;2022-11-04T06:39:28;100633.91;;;9.43;100.00
60373;BME280;46216;52.220;5.134;2022-11-04T06:41:54;100642.03;;;9.42;100.00
60373;BME280;46216;52.220;5.134;2022-11-04T06:44:19;100642.13;;;9.40;100.00
60373;BME280;46216;52.220;5.134;2022-11-04T06:46:45;100652.88;;;9.39;100.00
60373;BME280;46216;52.220;5.134;2022-11-04T06:49:12;100654.78;;;9.37;100.00
60373;BME280;46216;52.220;5.134;2022-11-04T06:51:38;100664.47;;;9.38;100.00
60373;BME280;46216;52.220;5.134;2022-11-04T06:54:04;100668.84;;;9.39;100.00
60373;BME280;46216;52.220;5.134;2022-11-04T06:56:29;100669.69;;;9.39;100.00
60373;BME280;46216;52.220;5.134;2022-11-04T06:58:55;100665.97;;;9.42;100.00
60373;BME280;46216;52.220;5.134;2022-11-04T07:01:23;100669.47;;;9.42;100.00
60373;BME280;46216;52.220;5.134;2022-11-04T07:03:50;100666.69;;;9.44;100.00
60373;BME280;46216;52.220;5.134;2022-11-04T07:06:16;100679.69;;;9.48;100.00
60373;BME280;46216;52.220;5.134;2022-11-04T07:08:42;100676.06;;;9.50;100.00
60373;BME280;46216;52.220;5.134;2022-11-04T07:11:07;100682.22;;;9.50;100.00
60373;BME280;46216;52.220;5.134;2022-11-04T07:13:33;100684.78;;;9.52;100.00
60373;BME280;46216;52.220;5.134;2022-11-04T07:15:58;100679.56;;;9.50;100.00
60373;BME280;46216;52.220;5.134;2022-11-04T07:18:24;100691.03;;;9.51;100.00
60373;BME280;46216;52.220;5.134;2022-11-04T07:20:50;100689.13;;;9.53;100.00
60373;BME280;46216;52.220;5.134;2022-11-04T07:23:16;100692.44;;;9.56;100.00
60373;BME280;46216;52.220;5.134;2022-11-04T07:25:41;100685.19;;;9.58;100.00
60373;BME280;46216;52.220;5.134;2022-11-04T07:28:07;100698.16;;;9.63;100.00
60373;BME280;46216;52.220;5.134;2022-11-04T07:30:33;100701.59;;;9.65;100.00
60373;BME280;46216;52.220;5.134;2022-11-04T07:32:58;100699.00;;;9.63;100.00
60373;BME280;46216;52.220;5.134;2022-11-04T07:35:23;100707.75;;;9.65;100.00
60373;BME280;46216;52.220;5.134;2022-11-04T07:37:49;100709.44;;;9.66;100.00
60373;BME280;46216;52.220;5.134;2022-11-04T07:40:14;100714.63;;;9.68;100.00
60373;BME280;46216;52.220;5.134;2022-11-04T07:42:39;100716.25;;;9.70;100.00
60373;BME280;46216;52.220;5.134;2022-11-04T07:45:05;100724.34;;;9.69;100.00
60373;BME280;46216;52.220;5.134;2022-11-04T07:47:31;100733.81;;;9.73;100.00
60373;BME280;46216;52.220;5.134;2022-11-04T07:49:57;100732.63;;;9.77;100.00
60373;BME280;46216;52.220;5.134;2022-11-04T07:52:22;100736.66;;;9.83;100.00
60373;BME280;46216;52.220;5.134;2022-11-04T07:54:48;100740.38;;;9.80;100.00
60373;BME280;46216;52.220;5.134;2022-11-04T07:57:13;100739.22;;;9.84;100.00
60373;BME280;46216;52.220;5.134;2022-11-04T07:59:39;100748.78;;;9.87;100.00
60373;BME280;46216;52.220;5.134;2022-11-04T08:02:04;100749.41;;;9.90;100.00
60373;BME280;46216;52.220;5.134;2022-11-04T08:04:30;100744.72;;;9.94;100.00
60373;BME280;46216;52.220;5.134;2022-11-04T08:06:55;100753.56;;;9.94;100.00
60373;BME280;46216;52.220;5.134;2022-11-04T08:09:20;100752.41;;;9.99;100.00
60373;BME280;46216;52.220;5.134;2022-11-04T08:11:47;100754.81;;;10.02;100.00
60373;BME280;46216;52.220;5.134;2022-11-04T08:14:13;100751.09;;;10.04;100.00
60373;BME280;46216;52.220;5.134;2022-11-04T08:16:38;100751.84;;;10.06;100.00
60373;BME280;46216;52.220;5.134;2022-11-04T08:19:03;100762.16;;;10.11;100.00
60373;BME280;46216;52.220;5.134;2022-11-04T08:21:30;100770.69;;;10.16;100.00
60373;BME280;46216;52.220;5.134;2022-11-04T08:23:56;100766.59;;;10.23;100.00
60373;BME280;46216;52.220;5.134;2022-11-04T08:26:22;100774.28;;;10.28;100.00
60373;BME280;46216;52.220;5.134;2022-11-04T08:28:49;100774.06;;;10.31;100.00
60373;BME280;46216;52.220;5.134;2022-11-04T08:31:18;100774.47;;;10.37;100.00
60373;BME280;46216;52.220;5.134;2022-11-04T08:33:44;100780.84;;;10.48;100.00
60373;BME280;46216;52.220;5.134;2022-11-04T08:36:16;100785.81;;;10.52;100.00
60373;BME280;46216;52.220;5.134;2022-11-04T08:38:42;100793.13;;;10.61;100.00
60373;BME280;46216;52.220;5.134;2022-11-04T08:41:08;100789.50;;;10.62;100.00
60373;BME280;46216;52.220;5.134;2022-11-04T08:43:34;100793.75;;;10.65;100.00
60373;BME280;46216;52.220;5.134;2022-11-04T08:46:00;100793.75;;;10.65;100.00
60373;BME280;46216;52.220;5.134;2022-11-04T08:48:26;100798.88;;;10.68;100.00
60373;BME280;46216;52.220;5.134;2022-11-04T08:50:54;100803.97;;;10.71;100.00
60373;BME280;46216;52.220;5.134;2022-11-04T08:53:20;100802.78;;;10.75;100.00
60373;BME280;46216;52.220;5.134;2022-11-04T08:55:45;100801.59;;;10.79;100.00
60373;BME280;46216;52.220;5.134;2022-11-04T08:58:11;100796.03;;;10.82;100.00
60373;BME280;46216;52.220;5.134;2022-11-04T09:00:37;100809.88;;;10.87;100.00
60373;BME280;46216;52.220;5.134;2022-11-04T09:03:03;100804.31;;;10.91;100.00
60373;BME280;46216;52.220;5.134;2022-11-04T09:05:28;100816.69;;;10.92;100.00
60373;BME280;46216;52.220;5.134;2022-11-04T09:07:54;100813.66;;;10.96;100.00
60373;BME280;46216;52.220;5.134;2022-11-04T09:10:20;100819.59;;;11.00;100.00
60373;BME280;46216;52.220;5.134;2022-11-04T09:12:45;100823.13;;;11.00;100.00
60373;BME280;46216;52.220;5.134;2022-11-04T09:15:11;100825.09;;;11.09;100.00
60373;BME280;46216;52.220;5.134;2022-11-04T09:17:36;100814.84;;;11.16;100.00
60373;BME280;46216;52.220;5.134;2022-11-04T09:20:02;100818.28;;;11.29;100.00
60373;BME280;46216;52.220;5.134;2022-11-04T09:22:28;100825.69;;;11.37;100.00
60373;BME280;46216;52.220;5.134;2022-11-04T09:24:54;100832.75;;;11.38;100.00
60373;BME280;46216;52.220;5.134;2022-11-04T09:27:19;100832.84;;;11.36;100.00
60373;BME280;46216;52.220;5.134;2022-11-04T09:29:44;100834.31;;;11.41;100.00
60373;BME280;46216;52.220;5.134;2022-11-04T09:32:10;100841.38;;;11.42;100.00
60373;BME280;46216;52.220;5.134;2022-11-04T09:34:35;100841.13;;;11.45;100.00
60373;BME280;46216;52.220;5.134;2022-11-04T09:37:01;100842.91;;;11.44;100.00
60373;BME280;46216;52.220;5.134;2022-11-04T09:39:26;100844.50;;;11.47;100.00
60373;BME280;46216;52.220;5.134;2022-11-04T09:44:44;100854.34;;;11.46;100.00
60373;BME280;46216;52.220;5.134;2022-11-04T09:47:13;100856.88;;;11.48;100.00
60373;BME280;46216;52.220;5.134;2022-11-04T09:49:41;100867.31;;;11.51;100.00
60373;BME280;46216;52.220;5.134;2022-11-04T09:52:17;100857.16;;;11.56;100.00
60373;BME280;46216;52.220;5.134;2022-11-04T09:54:53;100871.84;;;11.61;100.00
60373;BME280;46216;52.220;5.134;2022-11-04T09:57:20;100871.28;;;11.69;100.00
60373;BME280;46216;52.220;5.134;2022-11-04T09:59:46;100879.53;;;11.77;100.00
60373;BME280;46216;52.220;5.134;2022-11-04T10:02:42;100878.88;;;11.87;100.00
60373;BME280;46216;52.220;5.134;2022-11-04T10:08:12;100886.41;;;11.93;100.00
60373;BME280;46216;52.220;5.134;2022-11-04T10:21:38;100909.75;;;12.13;100.00
60373;BME280;46216;52.220;5.134;2022-11-04T10:26:49;100929.63;;;12.09;100.00
60373;BME280;46216;52.220;5.134;2022-11-04T10:30:03;100926.34;;;12.05;100.00
60373;BME280;46216;52.220;5.134;2022-11-04T10:32:24;100928.16;;;12.05;100.00
60373;BME280;46216;52.220;5.134;2022-11-04T10:34:57;100935.09;;;12.07;100.00
60373;BME280;46216;52.220;5.134;2022-11-04T10:37:24;100936.69;;;12.10;100.00
60373;BME280;46216;52.220;5.134;2022-11-04T10:39:52;100937.41;;;12.12;100.00
60373;BME280;46216;52.220;5.134;2022-11-04T10:42:22;100947.63;;;12.18;100.00
60373;BME280;46216;52.220;5.134;2022-11-04T10:44:49;100945.69;;;12.20;100.00
60373;BME280;46216;52.220;5.134;2022-11-04T10:47:30;100949.06;;;12.22;100.00
60373;BME280;46216;52.220;5.134;2022-11-04T10:50:33;100958.06;;;12.21;100.00
60373;BME280;46216;52.220;5.134;2022-11-04T10:53:18;100947.91;;;12.26;100.00
60373;BME280;46216;52.220;5.134;2022-11-04T10:55:58;100947.00;;;12.26;100.00
60373;BME280;46216;52.220;5.134;2022-11-04T10:58:29;100948.38;;;12.31;100.00
60373;BME280;46216;52.220;5.134;2022-11-04T11:00:55;100944.72;;;12.32;100.00
60373;BME280;46216;52.220;5.134;2022-11-04T11:03:29;100946.19;;;12.37;100.00
60373;BME280;46216;52.220;5.134;2022-11-04T11:08:40;100931.75;;;12.50;100.00
60373;BME280;46216;52.220;5.134;2022-11-04T11:11:09;100941.22;;;12.54;100.00
60373;BME280;46216;52.220;5.134;2022-11-04T11:13:37;100944.59;;;12.57;100.00
60373;BME280;46216;52.220;5.134;2022-11-04T11:18:33;100956.16;;;12.57;100.00
60373;BME280;46216;52.220;5.134;2022-11-04T11:21:08;100961.88;;;12.52;100.00
60373;BME280;46216;52.220;5.134;2022-11-04T11:23:40;100975.38;;;12.51;100.00
60373;BME280;46216;52.220;5.134;2022-11-04T11:26:08;100982.41;;;12.52;100.00
60373;BME280;46216;52.220;5.134;2022-11-04T11:28:34;100979.63;;;12.53;100.00
60373;BME280;46216;52.220;5.134;2022-11-04T11:31:09;100983.84;;;12.56;100.00
60373;BME280;46216;52.220;5.134;2022-11-04T11:33:48;100988.00;;;12.60;100.00
60373;BME280;46216;52.220;5.134;2022-11-04T11:36:23;100985.22;;;12.62;100.00
60373;BME280;46216;52.220;5.134;2022-11-04T11:41:26;100984.97;;;12.76;100.00
60373;BME280;46216;52.220;5.134;2022-11-04T11:44:05;100976.84;;;12.77;100.00
60373;BME280;46216;52.220;5.134;2022-11-04T11:46:33;100968.88;;;12.87;100.00
60373;BME280;46216;52.220;5.134;2022-11-04T11:49:02;100972.19;;;13.02;100.00
60373;BME280;46216;52.220;5.134;2022-11-04T11:51:38;100969.47;;;13.24;100.00
60373;BME280;46216;52.220;5.134;2022-11-04T11:54:28;100970.94;;;13.29;100.00
60373;BME280;46216;52.220;5.134;2022-11-04T11:56:59;100974.56;;;13.28;100.00
60373;BME280;46216;52.220;5.134;2022-11-04T12:00:00;100983.19;;;13.20;100.00
60373;BME280;46216;52.220;5.134;2022-11-04T12:05:42;100987.09;;;13.16;100.00
60373;BME280;46216;52.220;5.134;2022-11-04T12:14:01;100986.25;;;13.27;100.00
60373;BME280;46216;52.220;5.134;2022-11-04T12:16:57;100988.19;;;13.36;100.00
60373;BME280;46216;52.220;5.134;2022-11-04T12:19:38;100999.25;;;13.42;100.00
60373;BME280;46216;52.220;5.134;2022-11-04T12:22:42;100999.00;;;13.45;100.00
60373;BME280;46216;52.220;5.134;2022-11-04T12:25:19;100999.72;;;13.47;100.00
60373;BME280;46216;52.220;5.134;2022-11-04T12:31:18;100993.91;;;13.42;100.00
60373;BME280;46216;52.220;5.134;2022-11-04T12:39:37;101030.00;;;13.48;100.00
60373;BME280;46216;52.220;5.134;2022-11-04T12:44:52;101033.81;;;13.45;100.00
60373;BME280;46216;52.220;5.134;2022-11-04T12:47:42;101030.44;;;13.32;100.00
60373;BME280;46216;52.220;5.134;2022-11-04T12:56:05;101038.34;;;13.11;100.00
60373;BME280;46216;52.220;5.134;2022-11-04T13:01:07;101051.34;;;13.05;100.00
60373;BME280;46216;52.220;5.134;2022-11-04T13:03:41;101053.16;;;13.04;100.00
60373;BME280;46216;52.220;5.134;2022-11-04T13:06:46;101063.13;;;13.02;100.00
60373;BME280;46216;52.220;5.134;2022-11-04T13:12:11;101062.28;;;13.24;100.00
60373;BME280;46216;52.220;5.134;2022-11-04T13:14:54;101076.03;;;13.31;100.00
60373;BME280;46216;52.220;5.134;2022-11-04T13:17:25;101088.72;;;13.29;100.00
60373;BME280;46216;52.220;5.134;2022-11-04T13:20:12;101100.47;;;13.15;100.00
60373;BME280;46216;52.220;5.134;2022-11-04T13:22:48;101096.69;;;13.06;100.00
60373;BME280;46216;52.220;5.134;2022-11-04T13:25:33;101100.31;;;12.94;100.00
60373;BME280;46216;52.220;5.134;2022-11-04T13:28:02;101105.94;;;12.91;100.00
60373;BME280;46216;52.220;5.134;2022-11-04T13:30:45;101109.19;;;12.72;100.00
60373;BME280;46216;52.220;5.134;2022-11-04T13:33:28;101108.34;;;12.60;100.00
60373;BME280;46216;52.220;5.134;2022-11-04T13:36:11;101119.72;;;12.51;100.00
60373;BME280;46216;52.220;5.134;2022-11-04T13:38:43;101124.69;;;12.44;100.00
60373;BME280;46216;52.220;5.134;2022-11-04T13:41:50;101120.63;;;12.39;100.00
60373;BME280;46216;52.220;5.134;2022-11-04T13:44:28;101126.22;;;12.36;100.00
60373;BME280;46216;52.220;5.134;2022-11-04T13:47:01;101120.16;;;12.34;100.00
60373;BME280;46216;52.220;5.134;2022-11-04T13:49:30;101126.56;;;12.31;100.00
60373;BME280;46216;52.220;5.134;2022-11-04T13:52:02;101124.97;;;12.28;100.00
60373;BME280;46216;52.220;5.134;2022-11-04T13:54:39;101129.47;;;12.28;100.00
60373;BME280;46216;52.220;5.134;2022-11-04T13:57:15;101130.53;;;12.25;100.00
60373;BME280;46216;52.220;5.134;2022-11-04T14:02:48;101131.00;;;12.19;100.00
60373;BME280;46216;52.220;5.134;2022-11-04T14:18:32;101133.59;;;11.97;100.00
60373;BME280;46216;52.220;5.134;2022-11-04T14:21:18;101136.25;;;11.97;100.00
60373;BME280;46216;52.220;5.134;2022-11-04T14:23:46;101145.97;;;11.98;100.00
60373;BME280;46216;52.220;5.134;2022-11-04T14:26:15;101153.97;;;11.98;100.00
60373;BME280;46216;52.220;5.134;2022-11-04T14:28:43;101158.34;;;11.99;100.00
60373;BME280;46216;52.220;5.134;2022-11-04T14:31:11;101169.78;;;12.01;100.00